Time;durP1;ratioP1;P1;durP2;ratioP2;P2;SDS_P1;SDS_P2;PMS_P1;PMS_P2;Temp;Humidity;BMP_temperature;BMP_pressure;BME280_temperature;BME280_humidity;BME280_pressure;Samples;Min_cycle;Max_cycle;Signal;HPM_P1;HPM_P2
2024/02/20 00:04:09;;;;;;;1.50;1.50;;;10.30;99.90;;;;;;10504258;28;20208;-80
2024/02/20 00:09:11;;;;;;;1.40;1.40;;;10.40;99.90;;;;;;10493615;22;20655;-77
2024/02/20 00:14:15;;;;;;;1.27;1.27;;;10.40;99.90;;;;;;10450740;28;20190;-74
2024/02/20 00:19:17;;;;;;;1.10;1.10;;;10.50;99.90;;;;;;10431800;28;20267;-76
2024/02/20 00:24:20;;;;;;;1.30;1.30;;;10.50;99.90;;;;;;10439030;28;20230;-76
2024/02/20 00:29:23;;;;;;;1.00;1.00;;;10.60;99.90;;;;;;10427827;28;20221;-77
2024/02/20 00:34:26;;;;;;;1.30;1.30;;;10.60;99.90;;;;;;10425168;28;20205;-76
2024/02/20 00:39:28;;;;;;;1.37;1.37;;;10.60;99.90;;;;;;10441108;28;20210;-76
2024/02/20 00:44:32;;;;;;;1.20;1.20;;;10.60;99.90;;;;;;10423800;28;20220;-76
2024/02/20 00:49:34;;;;;;;1.20;1.20;;;10.60;99.90;;;;;;10439537;28;20214;-76
2024/02/20 00:54:40;;;;;;;1.10;1.10;;;10.60;99.90;;;;;;10420124;28;20185;-77
2024/02/20 00:59:44;;;;;;;1.13;1.13;;;10.60;99.90;;;;;;10438993;28;20687;-75
2024/02/20 01:04:46;;;;;;;1.10;1.10;;;10.60;99.90;;;;;;10419540;28;20263;-76
2024/02/20 01:09:48;;;;;;;0.83;0.83;;;10.50;99.90;;;;;;10437719;28;20703;-76
2024/02/20 01:14:52;;;;;;;1.20;1.20;;;10.50;99.90;;;;;;10418838;28;20197;-76
2024/02/20 01:19:54;;;;;;;1.00;1.00;;;10.50;99.90;;;;;;10439347;28;20225;-76
2024/02/20 01:24:57;;;;;;;1.00;1.00;;;10.50;99.90;;;;;;10416711;28;20709;-76
2024/02/20 01:30:00;;;;;;;1.10;1.10;;;10.50;99.90;;;;;;10439718;28;20217;-76
2024/02/20 01:35:04;;;;;;;1.00;1.00;;;10.50;99.90;;;;;;10417510;28;20213;-76
2024/02/20 01:40:08;;;;;;;0.70;0.70;;;10.50;99.90;;;;;;10440419;28;20217;-76
2024/02/20 01:45:12;;;;;;;0.70;0.70;;;10.40;99.90;;;;;;10416602;28;20213;-76
2024/02/20 01:50:14;;;;;;;0.60;0.60;;;10.40;99.90;;;;;;10435158;28;20564;-76
2024/02/20 01:55:19;;;;;;;0.70;0.70;;;10.40;99.90;;;;;;10416089;28;20190;-75
2024/02/20 02:00:23;;;;;;;0.60;0.60;;;10.40;99.90;;;;;;10436455;28;20194;-76
2024/02/20 02:05:26;;;;;;;0.70;0.70;;;10.40;99.90;;;;;;10412387;28;20224;-76
2024/02/20 02:10:28;;;;;;;0.70;0.70;;;10.50;99.90;;;;;;10440753;28;20202;-77
2024/02/20 02:15:32;;;;;;;0.60;0.60;;;10.50;99.90;;;;;;10414579;28;20262;-76
2024/02/20 02:20:34;;;;;;;0.60;0.60;;;10.50;99.90;;;;;;10443672;28;20190;-74
2024/02/20 02:25:36;;;;;;;0.60;0.60;;;10.50;99.90;;;;;;10421313;28;20701;-77
2024/02/20 02:30:40;;;;;;;0.60;0.60;;;10.60;99.90;;;;;;10448890;28;20194;-74
2024/02/20 02:35:43;;;;;;;0.60;0.60;;;10.60;99.90;;;;;;10420334;28;20678;-77
2024/02/20 02:40:45;;;;;;;0.60;0.60;;;10.60;99.90;;;;;;10448804;28;20663;-74
2024/02/20 02:45:49;;;;;;;0.70;0.70;;;10.60;99.90;;;;;;10434564;28;20209;-74
2024/02/20 02:50:52;;;;;;;0.60;0.60;;;10.60;99.90;;;;;;10444234;28;20210;-72
2024/02/20 02:55:54;;;;;;;0.60;0.60;;;10.50;99.90;;;;;;10418322;28;20717;-74
2024/02/20 03:00:58;;;;;;;0.53;0.53;;;10.50;99.90;;;;;;10449671;28;20201;-77
2024/02/20 03:06:06;;;;;;;0.60;0.60;;;10.50;99.90;;;;;;10417273;28;20221;-76
2024/02/20 03:11:09;;;;;;;0.50;0.50;;;10.50;99.90;;;;;;10464179;28;20221;-77
2024/02/20 03:16:13;;;;;;;0.60;0.60;;;10.50;99.90;;;;;;10417017;28;20209;-76
2024/02/20 03:21:19;;;;;;;0.70;0.70;;;10.40;99.90;;;;;;10448897;28;20656;-76
2024/02/20 03:26:21;;;;;;;0.60;0.60;;;10.50;99.90;;;;;;10416746;28;20224;-77
2024/02/20 03:31:25;;;;;;;0.93;0.93;;;10.50;99.90;;;;;;10447658;28;20201;-76
2024/02/20 03:36:27;;;;;;;0.60;0.60;;;10.40;99.90;;;;;;10415877;28;20216;-74
2024/02/20 03:41:30;;;;;;;0.70;0.70;;;10.40;99.90;;;;;;10448895;28;20194;-76
2024/02/20 03:46:33;;;;;;;0.63;0.63;;;10.40;99.90;;;;;;10413637;28;20622;-74
2024/02/20 03:51:36;;;;;;;0.70;0.70;;;10.40;99.90;;;;;;10449048;28;20182;-75
2024/02/20 03:56:38;;;;;;;0.80;0.80;;;10.50;99.90;;;;;;10414054;28;20213;-74
2024/02/20 04:01:42;;;;;;;0.60;0.60;;;10.40;99.90;;;;;;10449617;28;20201;-74
2024/02/20 04:06:44;;;;;;;1.10;1.10;;;10.30;99.90;;;;;;10406544;28;20241;-75
2024/02/20 04:11:46;;;;;;;1.20;1.20;;;10.30;99.90;;;;;;10449635;28;20582;-75
2024/02/20 04:16:50;;;;;;;1.10;1.10;;;10.20;99.90;;;;;;10411578;28;20210;-75
2024/02/20 04:21:52;;;;;;;1.10;1.10;;;10.20;99.90;;;;;;10448389;28;20193;-74
2024/02/20 04:26:56;;;;;;;1.10;1.10;;;10.20;99.90;;;;;;10410563;28;20861;-75
2024/02/20 04:32:00;;;;;;;1.00;1.00;;;10.20;99.90;;;;;;10449957;28;20200;-75
2024/02/20 04:37:02;;;;;;;1.00;1.00;;;10.20;99.90;;;;;;10410182;28;20214;-76
2024/02/20 04:42:05;;;;;;;1.40;1.40;;;10.10;99.90;;;;;;10449832;28;20185;-75
2024/02/20 04:47:09;;;;;;;1.30;1.30;;;10.10;99.90;;;;;;10408780;28;20279;-75
2024/02/20 04:52:11;;;;;;;1.20;1.20;;;10.00;99.90;;;;;;10448584;28;20725;-75
2024/02/20 04:57:14;;;;;;;1.27;1.27;;;10.10;99.90;;;;;;10438302;28;20210;-75
2024/02/20 05:02:17;;;;;;;1.13;1.13;;;10.10;99.90;;;;;;10389723;28;20191;-75
2024/02/20 05:07:20;;;;;;;1.27;1.27;;;10.10;99.90;;;;;;10398826;28;20272;-75
2024/02/20 05:12:22;;;;;;;1.13;1.13;;;10.00;99.90;;;;;;10449081;28;20546;-75
2024/02/20 05:17:26;;;;;;;1.03;1.03;;;10.00;99.90;;;;;;10408488;28;20214;-75
2024/02/20 05:22:28;;;;;;;1.30;1.30;;;10.10;99.90;;;;;;10415147;28;20194;-75
2024/02/20 05:27:31;;;;;;;1.10;1.10;;;10.00;99.90;;;;;;10447543;28;20661;-75
2024/02/20 05:32:35;;;;;;;1.20;1.20;;;10.00;99.90;;;;;;10404149;28;20541;-75
2024/02/20 05:37:37;;;;;;;1.00;1.00;;;10.10;99.90;;;;;;10444883;28;20705;-73
2024/02/20 05:42:40;;;;;;;1.20;1.20;;;10.00;99.90;;;;;;10421795;28;20205;-74
2024/02/20 05:47:44;;;;;;;1.20;1.20;;;10.10;99.90;;;;;;10440975;28;20228;-74
2024/02/20 05:52:46;;;;;;;0.40;0.40;;;10.10;99.90;;;;;;10400846;28;20198;-74
2024/02/20 05:57:49;;;;;;;1.00;1.00;;;10.00;99.90;;;;;;10447570;28;20279;-76
2024/02/20 06:02:53;;;;;;;1.10;1.10;;;10.10;99.90;;;;;;10419836;28;20205;-74
2024/02/20 06:07:55;;;;;;;0.70;0.70;;;10.00;99.90;;;;;;10434542;22;20232;-76
2024/02/20 06:12:58;;;;;;;0.73;0.73;;;10.10;99.90;;;;;;10492318;28;20204;-77
2024/02/20 06:18:01;;;;;;;0.90;0.90;;;10.00;99.90;;;;;;10467377;28;20220;-77
2024/02/20 06:23:04;;;;;;;0.60;0.60;;;10.10;99.90;;;;;;10455280;28;20209;-77
2024/02/20 06:28:07;;;;;;;0.87;0.87;;;10.00;99.90;;;;;;10459181;28;20282;-77
2024/02/20 06:33:11;;;;;;;0.80;0.80;;;10.00;99.90;;;;;;10478940;28;20201;-76
2024/02/20 06:38:13;;;;;;;0.77;0.77;;;10.00;99.90;;;;;;10490953;28;20216;-77
2024/02/20 06:43:16;;;;;;;0.70;0.70;;;10.00;99.90;;;;;;10489472;28;20616;-77
2024/02/20 06:48:20;;;;;;;0.70;0.70;;;10.00;99.90;;;;;;10480437;28;20204;-76
2024/02/20 06:53:23;;;;;;;0.47;0.47;;;10.00;99.90;;;;;;10491176;28;20201;-76
2024/02/20 06:58:27;;;;;;;0.90;0.90;;;10.00;99.90;;;;;;10492629;28;20229;-77
2024/02/20 07:03:31;;;;;;;0.80;0.80;;;10.00;99.90;;;;;;10490746;28;20228;-77
2024/02/20 07:08:34;;;;;;;0.63;0.63;;;10.10;99.90;;;;;;10492944;28;20294;-76
2024/02/20 07:13:38;;;;;;;0.80;0.80;;;10.00;99.90;;;;;;10492550;28;20552;-76
2024/02/20 07:18:43;;;;;;;1.00;1.00;;;10.10;99.90;;;;;;10454657;28;20219;-76
2024/02/20 07:23:45;;;;;;;0.90;0.90;;;10.10;99.90;;;;;;10452074;28;20271;-76
2024/02/20 07:28:48;;;;;;;0.90;0.90;;;10.10;99.90;;;;;;10466356;28;20234;-76
2024/02/20 07:33:51;;;;;;;0.80;0.80;;;10.10;99.90;;;;;;10479453;28;20197;-76
2024/02/20 07:38:54;;;;;;;0.50;0.50;;;10.20;99.90;;;;;;10493534;28;20216;-76
2024/02/20 07:43:56;;;;;;;0.57;0.57;;;10.20;99.90;;;;;;10486685;28;20208;-76
2024/02/20 07:49:00;;;;;;;0.83;0.83;;;10.20;99.90;;;;;;10477534;28;20223;-77
2024/02/20 07:54:03;;;;;;;0.80;0.80;;;10.30;99.90;;;;;;10478448;28;20209;-76
2024/02/20 07:59:05;;;;;;;0.50;0.50;;;10.30;99.90;;;;;;10476809;28;20290;-78
2024/02/20 08:04:09;;;;;;;0.80;0.80;;;10.40;99.90;;;;;;10476576;28;20224;-76
2024/02/20 08:09:12;;;;;;;0.60;0.60;;;10.50;99.90;;;;;;10490644;28;20236;-76
2024/02/20 08:14:15;;;;;;;0.80;0.80;;;10.50;99.90;;;;;;10490389;28;20192;-76
2024/02/20 08:19:19;;;;;;;1.10;1.10;;;10.60;99.90;;;;;;10491588;28;20204;-77
2024/02/20 08:24:22;;;;;;;0.80;0.80;;;10.60;99.90;;;;;;10463554;28;20764;-76
2024/02/20 08:29:27;;;;;;;0.90;0.90;;;10.70;99.90;;;;;;10477086;28;20213;-77
2024/02/20 08:34:31;;;;;;;0.60;0.60;;;11.00;99.90;;;;;;10463326;28;20205;-76
2024/02/20 08:39:34;;;;;;;0.60;0.60;;;11.00;99.90;;;;;;10490235;28;20212;-77
2024/02/20 08:44:36;;;;;;;0.60;0.60;;;11.10;99.90;;;;;;10489918;28;20224;-77
2024/02/20 08:49:40;;;;;;;0.60;0.60;;;11.20;99.90;;;;;;10489689;28;20247;-76
2024/02/20 08:54:43;;;;;;;0.53;0.53;;;11.30;99.90;;;;;;10490094;28;20204;-76
2024/02/20 08:59:47;;;;;;;0.40;0.40;;;11.30;99.90;;;;;;10484247;28;20232;-77
2024/02/20 09:04:52;;;;;;;0.50;0.50;;;11.40;99.90;;;;;;10492960;28;20220;-77
2024/02/20 09:09:54;;;;;;;0.50;0.50;;;11.50;99.90;;;;;;10489397;28;20213;-76
2024/02/20 09:14:57;;;;;;;0.50;0.50;;;11.60;99.90;;;;;;10473136;28;20249;-77
2024/02/20 09:20:01;;;;;;;0.40;0.40;;;11.60;99.90;;;;;;10488643;28;20285;-77
2024/02/20 09:25:04;;;;;;;0.40;0.40;;;11.70;99.90;;;;;;10490286;28;20220;-76
2024/02/20 09:30:07;;;;;;;0.50;0.50;;;11.70;99.90;;;;;;10491446;28;20278;-77
2024/02/20 09:35:14;;;;;;;0.40;0.40;;;11.80;99.90;;;;;;10497524;28;20196;-76
2024/02/20 09:40:20;;;;;;;0.50;0.50;;;11.90;99.90;;;;;;10497029;28;20224;-77
2024/02/20 09:45:25;;;;;;;0.40;0.40;;;12.00;99.90;;;;;;10497227;28;20635;-76
2024/02/20 09:50:30;;;;;;;0.40;0.40;;;12.00;99.90;;;;;;10498421;28;20223;-77
2024/02/20 09:55:33;;;;;;;0.40;0.40;;;12.10;99.50;;;;;;10503080;28;20208;-78
2024/02/20 10:00:36;;;;;;;0.40;0.40;;;12.10;99.60;;;;;;10506318;28;20232;-78
2024/02/20 10:05:45;;;;;;;0.40;0.40;;;12.10;99.40;;;;;;10504902;28;20220;-78
2024/02/20 10:10:48;;;;;;;0.33;0.33;;;12.20;99.40;;;;;;10487449;28;20220;-78
2024/02/20 10:16:01;;;;;;;0.50;0.50;;;12.30;99.40;;;;;;10505216;28;20193;-78
2024/02/20 10:21:07;;;;;;;0.40;0.40;;;12.30;98.80;;;;;;10506032;28;20278;-78
2024/02/20 10:26:11;;;;;;;0.30;0.30;;;12.20;98.50;;;;;;10503906;28;20224;-78
2024/02/20 10:31:14;;;;;;;0.30;0.30;;;12.20;98.80;;;;;;10488303;28;20224;-78
2024/02/20 10:36:20;;;;;;;0.30;0.30;;;12.20;98.30;;;;;;10491427;28;20213;-78
2024/02/20 10:41:24;;;;;;;0.40;0.40;;;12.10;98.00;;;;;;10499853;28;20349;-78
2024/02/20 10:46:27;;;;;;;0.20;0.20;;;12.00;97.80;;;;;;10498145;28;20714;-77
2024/02/20 10:51:32;;;;;;;0.30;0.30;;;12.00;97.90;;;;;;10494763;28;20221;-77
2024/02/20 10:56:34;;;;;;;0.20;0.20;;;12.00;97.70;;;;;;10478884;28;20219;-77
2024/02/20 11:01:38;;;;;;;0.30;0.30;;;12.00;97.90;;;;;;10492015;28;20438;-78
2024/02/20 11:06:43;;;;;;;0.30;0.30;;;12.00;97.60;;;;;;10492072;28;20231;-78
2024/02/20 11:11:46;;;;;;;0.30;0.30;;;12.00;97.60;;;;;;10496297;28;20216;-78
2024/02/20 11:16:48;;;;;;;0.30;0.30;;;11.90;97.20;;;;;;10498185;28;20197;-78
2024/02/20 11:21:53;;;;;;;0.30;0.30;;;11.70;97.60;;;;;;10470984;28;20197;-78
2024/02/20 11:27:03;;;;;;;0.37;0.37;;;11.60;97.70;;;;;;10484438;28;20728;-78
2024/02/20 11:32:13;;;;;;;0.30;0.30;;;11.40;96.90;;;;;;10498947;28;20208;-78
2024/02/20 11:37:17;;;;;;;0.40;0.40;;;11.50;97.70;;;;;;10499352;28;20702;-79
2024/02/20 11:42:20;;;;;;;0.23;0.23;;;11.80;98.10;;;;;;10499944;28;20196;-78
2024/02/20 11:47:22;;;;;;;0.20;0.20;;;12.10;96.10;;;;;;10496500;28;20225;-80
2024/02/20 11:52:26;;;;;;;0.40;0.40;;;12.30;96.20;;;;;;10496114;28;20625;-79
2024/02/20 11:57:29;;;;;;;0.47;0.47;;;12.30;96.10;;;;;;10500373;28;20216;-78
2024/02/20 12:02:34;;;;;;;0.30;0.30;;;12.10;96.30;;;;;;10498166;28;20717;-78
2024/02/20 12:07:39;;;;;;;0.40;0.40;;;12.00;96.40;;;;;;10496463;28;20217;-78
2024/02/20 12:12:42;;;;;;;0.40;0.40;;;11.90;96.60;;;;;;10497783;28;20184;-79
2024/02/20 12:17:46;;;;;;;0.40;0.40;;;12.00;96.40;;;;;;10487184;22;20233;-74
2024/02/20 12:22:59;;;;;;;0.47;0.47;;;12.00;95.70;;;;;;10477353;28;20204;-76
2024/02/20 12:28:02;;;;;;;0.60;0.60;;;12.10;96.40;;;;;;10433100;28;20229;-77
2024/02/20 12:33:06;;;;;;;0.30;0.30;;;12.30;95.80;;;;;;10436565;28;20247;-75
2024/02/20 12:38:10;;;;;;;0.50;0.50;;;12.40;95.70;;;;;;10421855;28;20221;-75
2024/02/20 12:43:14;;;;;;;0.40;0.40;;;12.30;95.40;;;;;;10437148;28;20262;-76
2024/02/20 12:48:16;;;;;;;0.40;0.40;;;12.30;94.70;;;;;;10422608;28;20230;-76
2024/02/20 12:53:20;;;;;;;0.40;0.40;;;12.20;94.60;;;;;;10411343;28;20190;-75
2024/02/20 12:58:22;;;;;;;0.40;0.40;;;12.00;94.90;;;;;;10405495;28;20245;-75
2024/02/20 13:03:24;;;;;;;0.10;0.10;;;11.80;94.50;;;;;;10423845;28;20585;-76
2024/02/20 13:08:28;;;;;;;0.50;0.50;;;11.70;93.80;;;;;;10426220;28;20645;-76
2024/02/20 13:13:30;;;;;;;0.40;0.40;;;11.70;93.40;;;;;;10429767;28;20256;-76
2024/02/20 13:18:33;;;;;;;0.30;0.30;;;11.60;94.00;;;;;;10425328;28;20793;-76
2024/02/20 13:23:37;;;;;;;0.40;0.40;;;11.60;94.00;;;;;;10418748;28;21077;-77
2024/02/20 13:28:41;;;;;;;0.30;0.30;;;11.70;94.60;;;;;;10408214;28;20772;-75
2024/02/20 13:33:43;;;;;;;0.10;0.10;;;11.80;94.70;;;;;;10417062;28;20206;-77
2024/02/20 13:38:47;;;;;;;0.50;0.50;;;11.90;94.80;;;;;;10408025;28;20695;-75
2024/02/20 13:43:49;;;;;;;0.40;0.40;;;12.10;94.60;;;;;;10415434;28;20205;-74
2024/02/20 13:48:51;;;;;;;0.40;0.40;;;12.20;93.50;;;;;;10421274;28;20221;-73
2024/02/20 13:53:55;;;;;;;0.40;0.40;;;12.20;94.00;;;;;;10415778;28;20256;-74
2024/02/20 13:58:57;;;;;;;0.40;0.40;;;12.20;93.50;;;;;;10403740;28;20218;-74
2024/02/20 14:04:00;;;;;;;0.40;0.40;;;12.10;94.00;;;;;;10411382;28;20640;-74
2024/02/20 14:09:05;;;;;;;0.40;0.40;;;12.00;94.30;;;;;;10419150;28;20233;-74
2024/02/20 14:14:08;;;;;;;0.30;0.30;;;12.00;94.50;;;;;;10410511;28;20976;-74
2024/02/20 14:19:10;;;;;;;0.50;0.50;;;12.00;94.70;;;;;;10423534;28;20233;-75
2024/02/20 14:24:14;;;;;;;0.47;0.47;;;12.10;94.70;;;;;;10416482;28;20201;-75
2024/02/20 14:29:19;;;;;;;0.53;0.53;;;12.20;94.60;;;;;;10422641;28;20229;-75
2024/02/20 14:34:21;;;;;;;0.60;0.60;;;12.30;94.10;;;;;;10413483;28;20194;-75
2024/02/20 14:39:25;;;;;;;0.50;0.50;;;12.30;93.70;;;;;;10421832;28;20237;-75
2024/02/20 14:44:27;;;;;;;0.50;0.50;;;12.30;93.80;;;;;;10412775;28;20206;-74
2024/02/20 14:49:31;;;;;;;0.67;0.67;;;12.30;93.60;;;;;;10412543;28;20225;-75
2024/02/20 14:54:34;;;;;;;0.40;0.40;;;12.30;93.60;;;;;;10419513;28;20268;-74
2024/02/20 14:59:37;;;;;;;0.50;0.50;;;12.20;94.00;;;;;;10442111;28;20201;-74
2024/02/20 15:04:41;;;;;;;0.60;0.60;;;12.20;93.40;;;;;;10432810;28;20622;-74
2024/02/20 15:09:46;;;;;;;0.60;0.60;;;12.00;93.10;;;;;;10433333;28;20217;-74
2024/02/20 15:14:49;;;;;;;0.60;0.60;;;12.00;93.60;;;;;;10431654;28;20190;-77
2024/02/20 15:19:52;;;;;;;0.60;0.60;;;12.00;93.50;;;;;;10429561;28;20612;-74
2024/02/20 15:24:57;;;;;;;0.50;0.50;;;11.90;93.60;;;;;;10427715;28;20645;-74
2024/02/20 15:30:02;;;;;;;0.60;0.60;;;11.90;93.10;;;;;;10428894;28;20229;-75
2024/02/20 15:35:06;;;;;;;0.30;0.30;;;11.90;92.90;;;;;;10430228;28;20213;-74
2024/02/20 15:40:10;;;;;;;0.70;0.70;;;11.80;93.60;;;;;;10433707;28;20733;-76
2024/02/20 15:45:14;;;;;;;0.50;0.50;;;11.80;94.30;;;;;;10430476;28;20213;-75
2024/02/20 15:50:16;;;;;;;0.30;0.30;;;11.80;94.00;;;;;;10432468;28;20600;-74
2024/02/20 15:55:20;;;;;;;0.50;0.50;;;11.80;94.00;;;;;;10428353;28;20699;-77
2024/02/20 16:00:23;;;;;;;0.60;0.60;;;11.70;93.80;;;;;;10432916;28;20205;-76
2024/02/20 16:05:26;;;;;;;0.60;0.60;;;11.70;93.70;;;;;;10428186;28;20287;-77
2024/02/20 16:10:29;;;;;;;0.60;0.60;;;11.60;93.80;;;;;;10432989;28;20714;-76
2024/02/20 16:15:32;;;;;;;0.60;0.60;;;11.60;94.10;;;;;;10406506;28;20233;-74
2024/02/20 16:20:34;;;;;;;0.60;0.60;;;11.60;93.80;;;;;;10419356;28;20197;-75
2024/02/20 16:25:39;;;;;;;0.60;0.60;;;11.50;94.20;;;;;;10405692;28;20228;-74
2024/02/20 16:30:42;;;;;;;0.60;0.60;;;11.50;94.50;;;;;;10426069;28;20190;-75
2024/02/20 16:35:45;;;;;;;0.60;0.60;;;11.40;94.60;;;;;;10430341;28;20217;-74
2024/02/20 16:40:48;;;;;;;0.67;0.67;;;11.40;94.90;;;;;;10429822;28;20193;-74
2024/02/20 16:45:51;;;;;;;0.70;0.70;;;11.40;94.30;;;;;;10429630;28;20267;-74
2024/02/20 16:50:53;;;;;;;0.70;0.70;;;11.30;94.50;;;;;;10442220;28;20193;-74
2024/02/20 16:55:57;;;;;;;0.60;0.60;;;11.30;94.50;;;;;;10434510;28;20718;-75
2024/02/20 17:00:59;;;;;;;0.30;0.30;;;11.20;94.80;;;;;;10424212;28;20234;-73
2024/02/20 17:06:01;;;;;;;0.50;0.50;;;11.20;94.70;;;;;;10434764;28;20209;-74
2024/02/20 17:11:05;;;;;;;0.50;0.50;;;11.20;94.30;;;;;;10436136;28;20209;-75
2024/02/20 17:16:08;;;;;;;0.70;0.70;;;11.10;94.30;;;;;;10426093;28;20224;-74
2024/02/20 17:21:12;;;;;;;0.70;0.70;;;11.00;94.40;;;;;;10435081;28;20269;-75
2024/02/20 17:26:16;;;;;;;0.60;0.60;;;11.00;94.20;;;;;;10421678;28;20205;-75
2024/02/20 17:31:18;;;;;;;0.60;0.60;;;11.00;94.60;;;;;;10435180;28;20263;-73
2024/02/20 17:36:21;;;;;;;0.40;0.40;;;10.90;94.60;;;;;;10421307;28;20614;-74
2024/02/20 17:41:25;;;;;;;0.60;0.60;;;10.90;94.50;;;;;;10435666;28;20209;-74
2024/02/20 17:46:27;;;;;;;0.60;0.60;;;10.80;94.80;;;;;;10407696;28;20722;-78
2024/02/20 17:51:30;;;;;;;0.50;0.50;;;10.70;95.10;;;;;;10412129;28;20202;-77
2024/02/20 17:56:33;;;;;;;0.60;0.60;;;10.60;95.20;;;;;;10418240;28;20264;-79
2024/02/20 18:01:36;;;;;;;0.70;0.70;;;10.50;95.40;;;;;;10428689;28;20674;-76
2024/02/20 18:06:39;;;;;;;0.30;0.30;;;10.40;95.40;;;;;;10457908;28;20210;-77
2024/02/20 18:11:42;;;;;;;0.70;0.70;;;10.30;95.60;;;;;;10445033;28;20198;-78
2024/02/20 18:16:45;;;;;;;0.60;0.60;;;10.10;95.60;;;;;;10403179;28;20230;-75
2024/02/20 18:21:49;;;;;;;0.60;0.60;;;9.90;96.30;;;;;;10409235;28;20264;-76
2024/02/20 18:26:52;;;;;;;0.70;0.70;;;9.90;96.70;;;;;;10408565;28;20229;-74
2024/02/20 18:31:55;;;;;;;0.60;0.60;;;9.90;96.90;;;;;;10413928;28;20252;-75
2024/02/20 18:36:57;;;;;;;0.57;0.57;;;9.80;96.80;;;;;;10414788;28;20243;-74
2024/02/20 18:42:01;;;;;;;0.60;0.60;;;9.70;97.10;;;;;;10415401;28;20337;-74
2024/02/20 18:47:03;;;;;;;0.70;0.70;;;9.70;97.30;;;;;;10413086;28;20271;-75
2024/02/20 18:52:06;;;;;;;0.60;0.60;;;9.70;97.50;;;;;;10411288;28;20206;-75
2024/02/20 18:57:10;;;;;;;0.60;0.60;;;9.70;97.60;;;;;;10424338;28;20213;-74
2024/02/20 19:02:12;;;;;;;0.70;0.70;;;9.60;97.60;;;;;;10415364;28;20198;-75
2024/02/20 19:07:15;;;;;;;0.60;0.60;;;9.70;97.70;;;;;;10419489;28;20221;-75
2024/02/20 19:12:20;;;;;;;0.60;0.60;;;9.70;98.00;;;;;;10413355;28;20721;-75
2024/02/20 19:17:23;;;;;;;0.70;0.70;;;9.60;98.00;;;;;;10419374;28;20764;-75
2024/02/20 19:22:27;;;;;;;0.80;0.80;;;9.60;98.10;;;;;;10409304;28;20206;-75
2024/02/20 19:27:30;;;;;;;0.80;0.80;;;9.50;98.30;;;;;;10414868;28;20584;-75
2024/02/20 19:32:33;;;;;;;0.80;0.80;;;9.50;98.20;;;;;;10400344;28;20214;-75
2024/02/20 19:37:35;;;;;;;0.60;0.60;;;9.50;98.40;;;;;;10412291;28;20237;-73
2024/02/20 19:42:39;;;;;;;0.57;0.57;;;9.30;98.70;;;;;;10416466;28;20682;-75
2024/02/20 19:47:43;;;;;;;0.60;0.60;;;9.30;98.70;;;;;;10413773;28;20283;-73
2024/02/20 19:52:45;;;;;;;0.60;0.60;;;9.30;99.00;;;;;;10401241;28;20672;-74
2024/02/20 19:57:49;;;;;;;0.30;0.30;;;9.20;99.10;;;;;;10404555;28;20217;-74
2024/02/20 20:02:52;;;;;;;0.70;0.70;;;9.20;99.20;;;;;;10420929;28;20271;-75
2024/02/20 20:07:54;;;;;;;0.70;0.70;;;9.10;99.30;;;;;;10409235;28;20229;-75
2024/02/20 20:12:58;;;;;;;0.70;0.70;;;9.10;99.30;;;;;;10405933;28;20275;-74
2024/02/20 20:18:01;;;;;;;0.60;0.60;;;9.00;99.30;;;;;;10401227;28;20446;-74
2024/02/20 20:23:03;;;;;;;0.40;0.40;;;8.80;99.50;;;;;;10405948;28;20205;-75
2024/02/20 20:28:08;;;;;;;0.63;0.63;;;8.80;99.70;;;;;;10405337;28;20228;-74
2024/02/20 20:33:10;;;;;;;0.50;0.50;;;8.80;99.70;;;;;;10416598;28;20201;-75
2024/02/20 20:38:13;;;;;;;0.30;0.30;;;8.60;99.70;;;;;;10400211;28;20263;-74
2024/02/20 20:43:17;;;;;;;0.70;0.70;;;8.50;99.90;;;;;;10417873;28;20736;-75
2024/02/20 20:48:19;;;;;;;0.60;0.60;;;8.50;99.90;;;;;;10403291;28;20228;-75
2024/02/20 20:53:21;;;;;;;0.57;0.57;;;8.50;99.90;;;;;;10412191;28;20615;-75
2024/02/20 20:58:25;;;;;;;0.60;0.60;;;8.50;99.90;;;;;;10391877;28;20647;-75
2024/02/20 21:03:27;;;;;;;0.50;0.50;;;8.50;99.90;;;;;;10406813;28;20202;-76
2024/02/20 21:08:30;;;;;;;0.60;0.60;;;8.50;99.90;;;;;;10385587;28;20229;-75
2024/02/20 21:13:34;;;;;;;0.50;0.50;;;8.50;99.90;;;;;;10412218;28;20755;-73
2024/02/20 21:18:36;;;;;;;0.70;0.70;;;8.60;99.90;;;;;;10400492;28;20218;-74
2024/02/20 21:23:38;;;;;;;0.60;0.60;;;8.60;99.90;;;;;;10398690;28;20210;-74
2024/02/20 21:28:42;;;;;;;0.60;0.60;;;8.60;99.90;;;;;;10416450;28;20228;-74
2024/02/20 21:33:44;;;;;;;0.50;0.50;;;8.60;99.90;;;;;;10433688;28;20255;-75
2024/02/20 21:38:47;;;;;;;0.43;0.43;;;8.60;99.90;;;;;;10418714;28;20221;-75
2024/02/20 21:43:51;;;;;;;0.50;0.50;;;8.70;99.90;;;;;;10410815;28;20205;-75
2024/02/20 21:48:53;;;;;;;0.50;0.50;;;8.70;99.90;;;;;;10402379;28;20221;-74
2024/02/20 21:53:55;;;;;;;0.60;0.60;;;8.70;99.90;;;;;;10403725;28;20209;-74
2024/02/20 21:58:59;;;;;;;0.40;0.40;;;8.70;99.90;;;;;;10418752;28;20233;-74
2024/02/20 22:04:02;;;;;;;0.40;0.40;;;8.70;99.90;;;;;;10414132;28;20198;-73
2024/02/20 22:09:04;;;;;;;0.60;0.60;;;8.80;99.90;;;;;;10418181;28;20656;-74
2024/02/20 22:14:09;;;;;;;0.50;0.50;;;8.80;99.90;;;;;;10426469;28;20648;-75
2024/02/20 22:19:11;;;;;;;0.50;0.50;;;8.80;99.90;;;;;;10432523;28;20218;-74
2024/02/20 22:24:14;;;;;;;0.60;0.60;;;8.80;99.90;;;;;;10429568;28;20675;-74
2024/02/20 22:29:17;;;;;;;0.60;0.60;;;8.80;99.90;;;;;;10430192;28;20516;-74
2024/02/20 22:34:20;;;;;;;0.50;0.50;;;8.80;99.90;;;;;;10435549;28;20198;-75
2024/02/20 22:39:22;;;;;;;0.60;0.60;;;8.90;99.90;;;;;;10431129;28;20761;-74
2024/02/20 22:44:26;;;;;;;0.70;0.70;;;8.90;99.90;;;;;;10436918;28;20228;-75
2024/02/20 22:49:30;;;;;;;0.43;0.43;;;9.00;99.90;;;;;;10427145;28;20233;-73
2024/02/20 22:54:32;;;;;;;0.60;0.60;;;9.00;99.90;;;;;;10434960;28;20201;-75
2024/02/20 22:59:36;;;;;;;0.47;0.47;;;9.00;99.90;;;;;;10433226;28;20218;-74
2024/02/20 23:04:38;;;;;;;0.40;0.40;;;9.10;99.90;;;;;;10427296;28;20205;-74
2024/02/20 23:09:41;;;;;;;0.60;0.60;;;9.10;99.90;;;;;;10450497;28;20217;-74
2024/02/20 23:14:48;;;;;;;0.50;0.50;;;9.10;99.80;;;;;;10415055;28;20194;-74
2024/02/20 23:19:50;;;;;;;0.70;0.70;;;9.20;99.60;;;;;;10447510;28;20200;-75
2024/02/20 23:24:52;;;;;;;0.70;0.70;;;9.20;99.50;;;;;;10414147;28;20687;-74
2024/02/20 23:29:56;;;;;;;0.60;0.60;;;9.20;99.50;;;;;;10448875;28;20213;-73
2024/02/20 23:34:58;;;;;;;0.50;0.50;;;9.20;99.50;;;;;;10417255;28;20579;-75
2024/02/20 23:40:01;;;;;;;0.60;0.60;;;9.20;99.60;;;;;;10447925;28;20219;-74
2024/02/20 23:45:06;;;;;;;0.60;0.60;;;9.20;99.70;;;;;;10417285;28;20214;-75
2024/02/20 23:50:09;;;;;;;0.70;0.70;;;9.20;99.90;;;;;;10446316;28;20213;-74
2024/02/20 23:55:11;;;;;;;0.70;0.70;;;9.20;99.80;;;;;;10417151;28;20213;-76
